Time;durP1;ratioP1;P1;durP2;ratioP2;P2;SDS_P1;SDS_P2;PMS_P1;PMS_P2;Temp;Humidity;BMP_temperature;BMP_pressure;BME280_temperature;BME280_humidity;BME280_pressure;Samples;Min_cycle;Max_cycle;Signal;HPM_P1;HPM_P2
2023/01/11 00:00:54;;;;;;;6.63;3.40;;;;;;;3.48;100.00;100718.88;4985319;28;20495;-80
2023/01/11 00:03:20;;;;;;;6.37;3.40;;;;;;;3.48;100.00;100729.31;4979778;28;20096;-80
2023/01/11 00:05:47;;;;;;;7.33;3.03;;;;;;;3.55;100.00;100731.13;5004350;28;20130;-80
2023/01/11 00:08:13;;;;;;;6.57;3.20;;;;;;;3.50;100.00;100719.75;5016118;28;20044;-80
2023/01/11 00:10:40;;;;;;;5.53;3.23;;;;;;;3.44;100.00;100717.06;4993591;28;20091;-80
2023/01/11 00:13:07;;;;;;;10.80;4.00;;;;;;;3.42;100.00;100716.19;5006929;28;20034;-81
2023/01/11 00:15:36;;;;;;;11.23;3.70;;;;;;;3.54;100.00;100713.69;4981102;28;20383;-81
2023/01/11 00:18:06;;;;;;;5.00;3.07;;;;;;;3.59;100.00;100709.38;4975883;28;20466;-80
2023/01/11 00:20:33;;;;;;;5.20;2.70;;;;;;;3.57;100.00;100708.50;4990894;28;20245;-80
2023/01/11 00:23:00;;;;;;;7.33;2.90;;;;;;;3.48;100.00;100700.59;5013448;28;20034;-80
2023/01/11 00:25:26;;;;;;;7.83;4.10;;;;;;;3.53;100.00;100707.59;4982888;28;20128;-80
2023/01/11 00:27:54;;;;;;;6.23;3.13;;;;;;;3.54;100.00;100711.09;4998210;28;20041;-81
2023/01/11 00:30:20;;;;;;;6.83;3.23;;;;;;;3.55;100.00;100699.78;4973285;28;20046;-80
2023/01/11 00:32:47;;;;;;;5.13;3.13;;;;;;;3.63;100.00;100703.34;4992126;28;20048;-80
2023/01/11 00:35:14;;;;;;;6.10;3.00;;;;;;;3.64;100.00;100684.19;4988125;28;20615;-81
2023/01/11 00:37:41;;;;;;;9.47;4.20;;;;;;;3.73;100.00;100679.03;4983634;28;20092;-80
2023/01/11 00:40:08;;;;;;;9.80;3.77;;;;;;;3.65;100.00;100678.97;5032923;28;20033;-80
2023/01/11 00:48:09;;;;;;;7.23;3.30;;;;;;;3.67;100.00;100676.34;5001327;28;20045;-80
2023/01/11 00:50:38;;;;;;;7.17;3.83;;;;;;;3.81;100.00;100676.47;4973054;28;20037;-80
2023/01/11 00:53:06;;;;;;;6.13;3.20;;;;;;;3.72;100.00;100666.81;4993750;28;20053;-80
2023/01/11 00:55:36;;;;;;;7.93;4.47;;;;;;;3.75;100.00;100668.56;4991753;28;20049;-81
2023/01/11 00:58:05;;;;;;;7.57;2.97;;;;;;;3.71;100.00;100665.06;5013404;28;21473;-81
2023/01/11 01:00:32;;;;;;;5.50;2.97;;;;;;;3.75;100.00;100658.13;5003112;28;20169;-80
2023/01/11 01:02:58;;;;;;;16.20;3.03;;;;;;;3.76;100.00;100662.47;5032492;28;20034;-79
2023/01/11 01:05:25;;;;;;;6.87;2.77;;;;;;;3.81;100.00;100651.22;4992479;28;20074;-80
2023/01/11 01:07:52;;;;;;;7.43;3.43;;;;;;;3.79;100.00;100663.41;5019278;28;20039;-80
2023/01/11 01:10:19;;;;;;;9.90;4.13;;;;;;;3.83;100.00;100639.03;5003771;28;20068;-80
2023/01/11 01:15:31;;;;;;;9.67;3.57;;;;;;;3.82;100.00;100639.88;5000322;28;20037;-79
2023/01/11 01:17:58;;;;;;;5.57;3.10;;;;;;;3.85;100.00;100636.41;5001846;28;20037;-79
2023/01/11 01:20:26;;;;;;;8.60;3.37;;;;;;;3.83;100.00;100632.91;4981708;28;20088;-80
2023/01/11 01:22:52;;;;;;;6.63;2.93;;;;;;;3.79;100.00;100631.16;4993786;28;20052;-80
2023/01/11 01:25:19;;;;;;;5.90;3.00;;;;;;;3.76;100.00;100634.59;5021945;28;20387;-81
2023/01/11 01:27:46;;;;;;;6.00;3.00;;;;;;;3.78;100.00;100625.03;4997818;23;20046;-80
2023/01/11 01:30:13;;;;;;;7.43;3.90;;;;;;;3.79;100.00;100625.94;4994025;28;20034;-80
2023/01/11 01:32:39;;;;;;;7.17;3.63;;;;;;;3.79;100.00;100625.94;5012278;28;21792;-79
2023/01/11 01:35:06;;;;;;;5.57;2.53;;;;;;;3.77;100.00;100627.63;4989648;28;20093;-81
2023/01/11 01:37:33;;;;;;;7.43;2.87;;;;;;;3.77;100.00;100622.41;5005308;28;20036;-80
2023/01/11 01:40:00;;;;;;;4.83;2.73;;;;;;;3.71;100.00;100617.19;4966830;28;20075;-82
2023/01/11 01:42:26;;;;;;;9.73;2.70;;;;;;;3.66;100.00;100610.16;4983278;28;20053;-82
2023/01/11 01:45:01;;;;;;;4.67;2.60;;;;;;;3.75;100.00;100608.47;4962411;28;20049;-81
2023/01/11 01:47:31;;;;;;;6.27;2.70;;;;;;;3.72;100.00;100606.72;4981799;28;20088;-82
2023/01/11 01:50:00;;;;;;;5.57;3.00;;;;;;;3.71;100.00;100604.97;5006435;28;20037;-80
2023/01/11 01:52:28;;;;;;;7.67;4.23;;;;;;;3.76;100.00;100605.88;4987001;28;20042;-82
2023/01/11 01:54:56;;;;;;;5.60;2.60;;;;;;;3.73;100.00;100605.84;5004863;28;20037;-81
2023/01/11 01:57:26;;;;;;;6.50;2.77;;;;;;;3.83;100.00;100594.59;4978439;28;20045;-81
2023/01/11 01:59:54;;;;;;;7.47;3.83;;;;;;;3.82;100.00;100595.47;4960247;28;20057;-82
2023/01/11 02:02:23;;;;;;;5.50;2.90;;;;;;;3.76;100.00;100591.94;4985296;28;20064;-81
2023/01/11 02:04:50;;;;;;;8.37;2.90;;;;;;;3.81;100.00;100580.66;4992888;28;20038;-82
2023/01/11 02:07:19;;;;;;;7.37;2.70;;;;;;;3.82;100.00;100578.91;4966426;28;20041;-81
2023/01/11 02:09:50;;;;;;;6.30;3.00;;;;;;;3.84;100.00;100566.72;4999914;28;20041;-81
2023/01/11 02:12:17;;;;;;;6.27;2.93;;;;;;;3.84;100.00;100562.38;4996357;28;20176;-83
2023/01/11 02:14:44;;;;;;;10.07;3.63;;;;;;;3.87;100.00;100551.94;4985675;28;20049;-81
2023/01/11 02:17:11;;;;;;;5.70;2.83;;;;;;;3.88;100.00;100550.19;5000454;28;20088;-81
2023/01/11 02:19:50;;;;;;;6.83;2.70;;;;;;;3.86;100.00;100550.16;4985743;28;20049;-82
2023/01/11 02:22:29;;;;;;;6.67;2.73;;;;;;;3.81;100.00;100556.25;5010665;28;20049;-81
2023/01/11 02:24:59;;;;;;;7.37;2.97;;;;;;;3.85;100.00;100537.09;5020800;28;20505;-81
2023/01/11 02:28:00;;;;;;;6.43;2.80;;;;;;;3.84;100.00;100535.34;4993528;28;20510;-81
2023/01/11 02:30:48;;;;;;;5.87;2.60;;;;;;;3.83;100.00;100526.66;4993662;28;20057;-81
2023/01/11 02:33:27;;;;;;;6.30;3.13;;;;;;;3.77;100.00;100518.78;5008162;28;20038;-82
2023/01/11 02:36:07;;;;;;;6.27;2.50;;;;;;;3.77;100.00;100508.31;4991532;28;20526;-83
2023/01/11 02:38:58;;;;;;;7.57;3.20;;;;;;;3.82;100.00;100511.84;4993360;28;20056;-81
2023/01/11 02:47:41;;;;;;;5.57;3.13;;;;;;;3.82;100.00;100500.50;4979730;28;20434;-81
2023/01/11 02:50:31;;;;;;;8.73;3.00;;;;;;;3.81;100.00;100489.19;5015304;28;20034;-82
2023/01/11 02:53:25;;;;;;;6.37;2.90;;;;;;;3.78;100.00;100494.38;5012466;28;20041;-83
2023/01/11 02:55:56;;;;;;;7.30;2.70;;;;;;;3.88;100.00;100495.31;4997379;28;20033;-82
2023/01/11 02:58:26;;;;;;;11.47;2.70;;;;;;;3.86;100.00;100473.50;4988747;28;20449;-82
2023/01/11 03:00:54;;;;;;;5.33;2.83;;;;;;;3.86;100.00;100471.78;4980267;28;20076;-82
2023/01/11 03:03:23;;;;;;;8.10;3.67;;;;;;;3.86;100.00;100466.53;4992075;28;20379;-82
2023/01/11 03:05:53;;;;;;;7.33;2.50;;;;;;;3.92;100.00;100468.31;5017312;28;20121;-82
2023/01/11 03:08:56;;;;;;;8.60;2.60;;;;;;;3.94;100.00;100470.06;4992420;28;20046;-81
2023/01/11 03:14:23;;;;;;;6.90;2.40;;;;;;;3.89;100.00;100474.41;4999798;28;20038;-81
2023/01/11 03:17:17;;;;;;;8.37;2.53;;;;;;;3.93;100.00;100465.69;4992839;28;20418;-81
2023/01/11 03:19:47;;;;;;;4.47;2.20;;;;;;;3.98;100.00;100475.31;4991790;28;20034;-82
2023/01/11 03:22:28;;;;;;;7.50;2.50;;;;;;;3.98;100.00;100463.13;5026735;28;20061;-81
2023/01/11 03:24:58;;;;;;;6.77;2.27;;;;;;;4.05;100.00;100456.16;4996998;28;20107;-82
2023/01/11 03:27:54;;;;;;;7.17;2.70;;;;;;;4.13;100.00;100452.72;4993597;28;20092;-82
2023/01/11 03:30:28;;;;;;;6.67;2.20;;;;;;;4.20;100.00;100441.41;5003533;28;20034;-82
2023/01/11 03:33:09;;;;;;;4.55;2.63;;;;;;;4.15;100.00;100437.88;5006234;28;20034;-82
2023/01/11 03:35:47;;;;;;;5.47;2.10;;;;;;;4.19;100.00;100436.13;5026064;28;20426;-81
2023/01/11 03:38:30;;;;;;;4.57;2.70;;;;;;;4.27;100.00;100431.78;4993202;28;20049;-82
2023/01/11 03:41:01;;;;;;;4.50;2.37;;;;;;;4.23;100.00;100438.78;5002694;28;20384;-82
2023/01/11 03:43:28;;;;;;;8.77;3.03;;;;;;;4.30;100.00;100438.78;5000210;28;20693;-82
2023/01/11 03:46:03;;;;;;;6.07;2.20;;;;;;;4.39;100.00;100433.56;5011948;28;20041;-81
2023/01/11 03:49:00;;;;;;;3.33;2.13;;;;;;;4.31;100.00;100444.03;5016397;28;20575;-80
2023/01/11 03:51:28;;;;;;;9.67;2.90;;;;;;;4.35;100.00;100423.97;4988801;28;20042;-81
2023/01/11 03:53:57;;;;;;;4.90;2.30;;;;;;;4.37;100.00;100424.81;5009033;28;20447;-81
2023/01/11 03:56:31;;;;;;;6.43;2.30;;;;;;;4.38;100.00;100427.47;5002892;28;20045;-81
2023/01/11 03:58:58;;;;;;;7.07;2.50;;;;;;;4.38;100.00;100419.63;5004826;28;20061;-82
2023/01/11 04:01:25;;;;;;;6.13;2.30;;;;;;;4.33;100.00;100421.34;4993076;28;20037;-81
2023/01/11 04:03:51;;;;;;;3.27;1.97;;;;;;;4.35;100.00;100424.84;5004969;28;20104;-82
2023/01/11 04:06:18;;;;;;;7.20;2.77;;;;;;;4.38;100.00;100431.84;4996463;28;20069;-81
2023/01/11 04:08:45;;;;;;;9.70;2.90;;;;;;;4.33;100.00;100429.19;4998042;28;20060;-82
2023/01/11 04:11:11;;;;;;;4.97;1.93;;;;;;;4.39;100.00;100430.97;4996537;28;20415;-82
2023/01/11 04:13:38;;;;;;;5.67;2.13;;;;;;;4.31;100.00;100417.00;5021666;28;20049;-82
2023/01/11 04:16:05;;;;;;;4.53;2.67;;;;;;;4.31;100.00;100415.25;5015983;28;20080;-81
2023/01/11 04:18:32;;;;;;;9.37;3.10;;;;;;;4.31;100.00;100417.00;5016162;28;20037;-80
2023/01/11 04:20:58;;;;;;;4.60;2.53;;;;;;;4.31;100.00;100411.78;5017479;28;20048;-81
2023/01/11 04:23:25;;;;;;;4.70;2.20;;;;;;;4.32;100.00;100414.38;5005382;28;20128;-81
2023/01/11 04:25:52;;;;;;;5.37;1.70;;;;;;;4.34;100.00;100417.84;5005104;28;20053;-81
2023/01/11 04:28:19;;;;;;;5.13;2.60;;;;;;;4.24;100.00;100413.50;5023582;28;20057;-81
2023/01/11 04:30:46;;;;;;;4.80;2.53;;;;;;;4.35;100.00;100411.75;4976441;28;20041;-81
2023/01/11 04:33:13;;;;;;;4.27;1.90;;;;;;;4.37;100.00;100407.41;4982580;28;20049;-81
2023/01/11 04:35:41;;;;;;;5.67;2.37;;;;;;;4.37;100.00;100393.44;4987554;28;20061;-81
2023/01/11 04:38:07;;;;;;;5.93;2.33;;;;;;;4.37;100.00;100393.44;4987011;28;20042;-82
2023/01/11 04:40:34;;;;;;;7.20;2.20;;;;;;;4.43;100.00;100385.59;4996982;28;20046;-80
2023/01/11 04:43:01;;;;;;;6.20;2.33;;;;;;;4.37;100.00;100381.28;4989497;28;20124;-80
2023/01/11 04:45:29;;;;;;;5.47;1.93;;;;;;;4.46;100.00;100370.81;4986291;28;20045;-81
2023/01/11 04:47:56;;;;;;;5.07;2.03;;;;;;;4.42;100.00;100376.91;5003951;28;20052;-81
2023/01/11 04:50:24;;;;;;;4.63;2.17;;;;;;;4.47;100.00;100382.13;5016746;28;20076;-81
2023/01/11 04:52:51;;;;;;;5.07;1.80;;;;;;;4.44;100.00;100385.59;4997483;28;20046;-81
2023/01/11 04:55:18;;;;;;;4.60;2.03;;;;;;;4.52;100.00;100368.16;5005356;28;20458;-81
2023/01/11 04:57:45;;;;;;;5.03;2.57;;;;;;;4.46;100.00;100375.16;5006272;28;20034;-82
2023/01/11 05:00:14;;;;;;;4.20;2.40;;;;;;;4.55;100.00;100369.06;4985259;28;20057;-81
2023/01/11 05:02:41;;;;;;;2.73;1.80;;;;;;;4.51;100.00;100360.31;4997335;28;20068;-80
2023/01/11 05:05:12;;;;;;;5.07;2.10;;;;;;;4.44;100.00;100362.06;4983065;28;20138;-80
2023/01/11 05:07:38;;;;;;;6.53;1.90;;;;;;;4.37;100.00;100357.72;4999964;28;20099;-81
2023/01/11 05:10:05;;;;;;;5.60;2.63;;;;;;;4.52;100.00;100360.31;4992937;28;20037;-81
2023/01/11 05:12:32;;;;;;;4.40;2.33;;;;;;;4.51;100.00;100358.56;4982686;28;20045;-81
2023/01/11 05:14:58;;;;;;;4.10;2.13;;;;;;;4.53;100.00;100354.19;5002781;28;20042;-80
2023/01/11 05:17:25;;;;;;;6.73;2.90;;;;;;;4.61;100.00;100343.72;4999195;28;20388;-80
2023/01/11 05:19:52;;;;;;;3.57;1.70;;;;;;;4.60;100.00;100341.13;4974383;28;20141;-80
2023/01/11 05:22:18;;;;;;;6.17;1.83;;;;;;;4.65;100.00;100331.53;5004037;28;20101;-81
2023/01/11 05:24:45;;;;;;;5.83;1.67;;;;;;;4.64;100.00;100327.19;4989314;28;20046;-80
2023/01/11 05:27:12;;;;;;;7.23;2.00;;;;;;;4.62;100.00;100321.06;4995210;28;20038;-81
2023/01/11 05:29:38;;;;;;;3.30;1.70;;;;;;;4.65;100.00;100318.47;4981363;28;20105;-80
2023/01/11 05:32:05;;;;;;;5.07;2.80;;;;;;;4.66;100.00;100309.72;4984181;28;20065;-81
2023/01/11 05:34:31;;;;;;;7.17;2.43;;;;;;;4.62;100.00;100323.66;5008391;28;20072;-80
2023/01/11 05:36:58;;;;;;;3.97;2.13;;;;;;;4.74;100.00;100314.06;4989757;28;20042;-81
2023/01/11 05:39:25;;;;;;;3.97;2.37;;;;;;;4.75;100.00;100309.69;4992072;28;20030;-80
2023/01/11 05:41:51;;;;;;;5.73;2.83;;;;;;;4.70;100.00;100319.28;4987592;28;20490;-80
2023/01/11 05:47:03;;;;;;;3.60;2.03;;;;;;;4.76;100.00;100314.94;5002328;28;20046;-81
2023/01/11 05:49:30;;;;;;;4.37;1.77;;;;;;;4.80;100.00;100318.44;4985523;28;20136;-80
2023/01/11 05:51:57;;;;;;;5.57;2.57;;;;;;;4.78;100.00;100320.16;4982993;28;20061;-81
2023/01/11 05:54:23;;;;;;;3.80;1.70;;;;;;;4.77;100.00;100310.56;4999400;28;20042;-80
2023/01/11 05:56:50;;;;;;;4.17;1.63;;;;;;;4.76;100.00;100296.59;4991504;28;20037;-81
2023/01/11 05:59:16;;;;;;;7.27;2.30;;;;;;;4.77;100.00;100307.94;4982507;28;20066;-80
2023/01/11 06:01:43;;;;;;;4.70;1.80;;;;;;;4.84;100.00;100301.81;5000962;28;20049;-80
2023/01/11 06:04:10;;;;;;;3.10;1.60;;;;;;;4.87;100.00;100307.03;4995912;28;20037;-81
2023/01/11 06:06:37;;;;;;;4.00;1.70;;;;;;;4.84;100.00;100307.06;4986532;28;20096;-80
2023/01/11 06:09:03;;;;;;;3.77;1.57;;;;;;;4.89;100.00;100304.44;4993320;28;20045;-80
2023/01/11 06:11:30;;;;;;;2.37;1.53;;;;;;;4.86;100.00;100302.69;4972966;28;20499;-80
2023/01/11 06:13:57;;;;;;;4.33;1.70;;;;;;;4.78;100.00;100300.09;4963174;28;20076;-80
2023/01/11 06:16:23;;;;;;;5.97;1.83;;;;;;;4.76;100.00;100291.38;4987640;28;20084;-80
2023/01/11 06:18:52;;;;;;;2.80;1.43;;;;;;;4.88;100.00;100293.09;5011209;28;20049;-80
2023/01/11 06:21:19;;;;;;;5.07;1.80;;;;;;;4.83;100.00;100281.75;4986405;28;20037;-80
2023/01/11 06:23:49;;;;;;;3.27;1.93;;;;;;;4.81;100.00;100280.91;4984432;28;20041;-80
2023/01/11 06:26:18;;;;;;;4.47;1.70;;;;;;;4.89;100.00;100281.75;5014749;28;20045;-81
2023/01/11 06:28:45;;;;;;;3.53;1.50;;;;;;;4.89;100.00;100280.88;5020035;28;20052;-81
2023/01/11 06:31:12;;;;;;;4.83;1.60;;;;;;;4.93;100.00;100278.22;4984427;28;20064;-81
2023/01/11 06:33:42;;;;;;;4.30;1.87;;;;;;;4.90;100.00;100275.63;4979820;28;20046;-82
2023/01/11 06:36:11;;;;;;;4.60;2.13;;;;;;;4.96;100.00;100261.63;4986251;28;20050;-82
2023/01/11 06:38:37;;;;;;;4.73;1.70;;;;;;;4.92;100.00;100276.50;4984655;28;20045;-81
2023/01/11 06:41:07;;;;;;;3.03;1.40;;;;;;;4.96;100.00;100270.38;4989354;28;20053;-81
2023/01/11 06:43:35;;;;;;;8.20;2.47;;;;;;;5.00;100.00;100268.63;4972659;28;20046;-81
2023/01/11 06:46:02;;;;;;;5.27;1.90;;;;;;;4.95;100.00;100276.47;4990338;28;20073;-81
2023/01/11 06:48:28;;;;;;;3.77;2.20;;;;;;;4.92;100.00;100273.00;4978287;28;20081;-83
2023/01/11 06:50:56;;;;;;;6.53;1.90;;;;;;;5.02;100.00;100277.31;4985828;28;20100;-82
2023/01/11 06:53:24;;;;;;;2.80;1.80;;;;;;;4.98;100.00;100275.63;4985909;28;20602;-82
2023/01/11 06:55:55;;;;;;;4.60;1.70;;;;;;;5.04;100.00;100272.94;5011013;28;20049;-81
2023/01/11 06:58:23;;;;;;;4.07;1.47;;;;;;;5.00;100.00;100273.84;4996690;28;20414;-82
2023/01/11 07:00:51;;;;;;;4.90;1.87;;;;;;;5.04;100.00;100276.47;5005285;28;20033;-82
2023/01/11 07:03:19;;;;;;;2.60;1.97;;;;;;;5.03;100.00;100277.31;4974779;28;20456;-82
2023/01/11 07:05:46;;;;;;;3.10;1.50;;;;;;;5.02;100.00;100267.72;4974561;28;20043;-82
2023/01/11 07:08:12;;;;;;;6.80;2.40;;;;;;;5.08;100.00;100280.78;4981550;28;20038;-82
2023/01/11 07:10:40;;;;;;;7.43;1.90;;;;;;;5.13;100.00;100274.66;5009676;28;20466;-81
2023/01/11 07:13:07;;;;;;;5.00;1.60;;;;;;;5.07;100.00;100271.22;4961454;28;20050;-83
2023/01/11 07:15:33;;;;;;;3.77;1.53;;;;;;;5.17;100.00;100272.03;4993018;28;20426;-81
2023/01/11 07:18:01;;;;;;;3.80;1.67;;;;;;;5.22;100.00;100280.75;4976960;28;20092;-81
2023/01/11 07:20:28;;;;;;;4.43;1.90;;;;;;;5.20;100.00;100272.00;4982995;28;20136;-82
2023/01/11 07:22:59;;;;;;;4.07;1.90;;;;;;;5.21;100.00;100281.63;4986752;28;20049;-81
2023/01/11 07:25:26;;;;;;;4.00;1.50;;;;;;;5.24;100.00;100275.50;4978027;28;20498;-82
2023/01/11 07:28:01;;;;;;;2.77;1.67;;;;;;;5.18;100.00;100279.00;5050607;23;20098;-83
2023/01/11 07:30:29;;;;;;;4.63;1.80;;;;;;;5.19;100.00;100285.09;5002060;28;20490;-82
2023/01/11 07:32:57;;;;;;;3.40;1.63;;;;;;;5.14;100.00;100287.75;4958239;28;20043;-83
2023/01/11 07:35:25;;;;;;;4.40;1.80;;;;;;;5.20;100.00;100289.47;4977112;28;20071;-82
2023/01/11 07:37:54;;;;;;;3.10;1.47;;;;;;;5.15;100.00;100291.25;4952949;28;20046;-83
2023/01/11 07:40:21;;;;;;;6.40;1.33;;;;;;;5.11;100.00;100289.50;4994454;28;20042;-83
2023/01/11 07:45:35;;;;;;;5.20;1.80;;;;;;;5.16;100.00;100290.38;5004010;28;20509;-83
2023/01/11 07:48:11;;;;;;;4.53;1.83;;;;;;;5.11;100.00;100297.38;5003730;28;20506;-83
2023/01/11 07:50:39;;;;;;;3.83;2.17;;;;;;;5.05;100.00;100299.16;4996897;28;20071;-83
2023/01/11 07:53:08;;;;;;;6.53;2.40;;;;;;;5.12;100.00;100301.72;4982377;28;20101;-83
2023/01/11 07:55:36;;;;;;;3.13;2.00;;;;;;;5.08;100.00;100301.75;4977843;28;20124;-84
2023/01/11 07:58:03;;;;;;;3.50;1.77;;;;;;;5.08;100.00;100288.66;4980975;28;20652;-83
2023/01/11 08:00:29;;;;;;;3.83;1.60;;;;;;;5.00;100.00;100293.03;4988224;28;20434;-84
2023/01/11 08:02:56;;;;;;;3.50;1.67;;;;;;;4.95;100.00;100297.41;4997931;28;20506;-84
2023/01/11 08:05:23;;;;;;;4.40;1.60;;;;;;;5.11;100.00;100299.97;4981580;28;20049;-83
2023/01/11 08:07:50;;;;;;;3.57;1.53;;;;;;;5.08;100.00;100291.28;4997110;28;20046;-84
2023/01/11 08:10:17;;;;;;;4.83;1.73;;;;;;;5.07;100.00;100294.78;4991600;28;20710;-84
2023/01/11 08:15:31;;;;;;;4.10;2.10;;;;;;;5.03;100.00;100285.16;5006780;28;20046;-83
2023/01/11 08:17:58;;;;;;;4.47;1.70;;;;;;;5.01;100.00;100280.81;4980057;28;20045;-83
2023/01/11 08:20:25;;;;;;;4.17;2.10;;;;;;;5.02;100.00;100277.31;4964857;28;20041;-84
2023/01/11 08:22:52;;;;;;;5.40;2.20;;;;;;;5.01;100.00;100281.69;4964349;28;20124;-82
2023/01/11 08:25:19;;;;;;;3.80;1.80;;;;;;;4.93;100.00;100279.97;4980540;28;20053;-84
2023/01/11 08:27:46;;;;;;;4.53;2.13;;;;;;;4.99;100.00;100277.34;4979283;28;20064;-84
2023/01/11 08:30:13;;;;;;;6.00;2.50;;;;;;;4.94;100.00;100279.97;4979415;28;20061;-85
2023/01/11 08:32:40;;;;;;;4.03;2.10;;;;;;;4.90;100.00;100278.25;4963121;28;20073;-84
2023/01/11 08:35:07;;;;;;;4.63;1.80;;;;;;;4.90;100.00;100282.63;4981214;28;20049;-84
2023/01/11 08:37:33;;;;;;;5.70;1.80;;;;;;;4.91;100.00;100276.50;4982335;28;20053;-86
2023/01/11 08:40:00;;;;;;;3.77;1.90;;;;;;;4.94;100.00;100274.75;5017047;28;20064;-84
2023/01/11 08:42:27;;;;;;;3.83;1.90;;;;;;;4.86;100.00;100275.63;5015586;28;20050;-85
2023/01/11 08:44:54;;;;;;;4.63;2.13;;;;;;;4.82;100.00;100268.69;5012296;28;20081;-85
2023/01/11 08:47:21;;;;;;;4.57;2.10;;;;;;;4.90;100.00;100270.41;4997307;28;20422;-85
2023/01/11 08:49:47;;;;;;;5.00;2.17;;;;;;;4.87;100.00;100267.78;4992897;28;20498;-85
2023/01/11 08:52:14;;;;;;;4.43;2.20;;;;;;;4.86;100.00;100262.56;5032356;28;20418;-84
2023/01/11 08:54:41;;;;;;;4.60;2.00;;;;;;;4.84;100.00;100267.81;5015613;28;20469;-84
2023/01/11 08:57:08;;;;;;;4.13;2.10;;;;;;;4.87;100.00;100267.78;4971235;28;20116;-85
2023/01/11 08:59:35;;;;;;;3.80;2.40;;;;;;;4.82;100.00;100266.06;5022744;28;20099;-85
2023/01/11 09:02:03;;;;;;;3.90;2.40;;;;;;;4.90;100.00;100267.78;4963891;28;20050;-85
2023/01/11 09:04:30;;;;;;;4.77;2.23;;;;;;;4.86;100.00;100273.03;4996461;28;20132;-84
2023/01/11 09:06:57;;;;;;;5.10;2.37;;;;;;;4.87;100.00;100274.75;4970209;28;20056;-85
2023/01/11 09:09:24;;;;;;;4.77;2.07;;;;;;;4.90;100.00;100275.63;4996911;28;20407;-86
2023/01/11 09:11:53;;;;;;;7.20;2.60;;;;;;;4.96;100.00;100277.34;4979556;28;20037;-84
2023/01/11 09:14:21;;;;;;;3.50;2.03;;;;;;;4.89;100.00;100278.28;4996171;28;20057;-85
2023/01/11 09:16:48;;;;;;;6.77;2.60;;;;;;;4.96;100.00;100273.00;5006649;28;20041;-87
2023/01/11 09:19:14;;;;;;;6.07;2.60;;;;;;;4.88;100.00;100266.94;4961712;28;20038;-86
2023/01/11 09:21:42;;;;;;;5.57;2.50;;;;;;;4.96;100.00;100280.88;4976678;28;20052;-85
2023/01/11 09:24:08;;;;;;;6.27;2.93;;;;;;;5.00;100.00;100279.09;5005374;28;20037;-86
2023/01/11 09:26:36;;;;;;;5.53;2.20;;;;;;;4.94;100.00;100284.34;4970529;28;20136;-86
2023/01/11 09:29:03;;;;;;;5.07;2.37;;;;;;;4.97;100.00;100279.13;4965949;28;20041;-86
2023/01/11 09:31:30;;;;;;;5.60;2.40;;;;;;;4.93;100.00;100279.97;4995689;28;20049;-86
2023/01/11 09:33:57;;;;;;;5.23;2.50;;;;;;;4.98;100.00;100276.47;4989624;28;20042;-87
2023/01/11 09:36:26;;;;;;;5.03;2.80;;;;;;;5.00;100.00;100271.22;4990766;28;20100;-85
2023/01/11 09:38:56;;;;;;;6.73;2.53;;;;;;;5.03;100.00;100279.94;4975079;28;20046;-86
2023/01/11 09:41:59;;;;;;;5.53;2.40;;;;;;;4.98;100.00;100275.63;5002181;28;20046;-85
2023/01/11 09:44:28;;;;;;;4.60;2.33;;;;;;;5.10;100.00;100259.84;4964258;28;20049;-85
2023/01/11 09:47:18;;;;;;;6.53;3.47;;;;;;;5.11;100.00;100260.72;4998320;28;20041;-86
2023/01/11 09:49:53;;;;;;;5.77;2.77;;;;;;;5.02;100.00;100265.09;4998174;28;20045;-84
2023/01/11 09:52:27;;;;;;;5.50;3.17;;;;;;;5.13;100.00;100259.84;4982261;28;20042;-86
2023/01/11 09:55:00;;;;;;;5.30;2.80;;;;;;;5.02;100.00;100267.72;4995923;28;20111;-85
2023/01/11 09:57:49;;;;;;;4.57;2.67;;;;;;;5.10;100.00;100257.22;4967843;28;20042;-85
2023/01/11 10:00:32;;;;;;;3.90;2.67;;;;;;;5.13;100.00;100258.94;4974287;28;20042;-83
2023/01/11 10:03:43;;;;;;;4.13;2.70;;;;;;;5.17;100.00;100260.69;4991344;28;20498;-86
2023/01/11 10:06:10;;;;;;;10.57;4.23;;;;;;;5.23;100.00;100255.44;4946199;28;20061;-83
2023/01/11 10:08:54;;;;;;;10.60;3.43;;;;;;;5.25;100.00;100248.41;4976954;28;20045;-85
2023/01/11 10:11:41;;;;;;;6.80;3.05;;;;;;;5.23;100.00;100244.94;4994228;28;20056;-85
2023/01/11 10:14:58;;;;;;;4.60;3.00;;;;;;;5.25;100.00;100243.19;5028061;28;20128;-86
2023/01/11 10:18:16;;;;;;;5.60;2.87;;;;;;;5.33;100.00;100242.25;5000340;28;20129;-85
2023/01/11 10:21:12;;;;;;;7.33;3.33;;;;;;;5.34;100.00;100245.75;4978753;28;20037;-85
2023/01/11 10:23:54;;;;;;;4.87;2.73;;;;;;;5.41;100.00;100238.72;4981177;28;20654;-85
2023/01/11 10:26:27;;;;;;;4.97;2.97;;;;;;;5.44;100.00;100229.09;5002748;28;20056;-86
2023/01/11 10:32:02;;;;;;;6.37;2.67;;;;;;;5.43;100.00;100229.09;5020593;28;20030;-85
2023/01/11 10:43:02;;;;;;;4.53;2.80;;;;;;;5.65;100.00;100223.72;4993808;28;20038;-85
2023/01/11 10:45:36;;;;;;;8.57;5.47;;;;;;;5.68;100.00;100214.94;4977739;28;20414;-84
2023/01/11 10:48:08;;;;;;;4.43;3.30;;;;;;;5.69;100.00;100208.81;4976991;28;20491;-85
2023/01/11 10:50:40;;;;;;;16.43;9.83;;;;;;;5.73;100.00;100207.94;4993874;28;20052;-84
2023/01/11 10:53:39;;;;;;;32.57;21.23;;;;;;;5.75;100.00;100207.91;4977678;28;20478;-84
2023/01/11 10:56:41;;;;;;;5.67;4.87;;;;;;;5.79;100.00;100207.84;4999049;28;20041;-84
2023/01/11 11:00:16;;;;;;;4.97;3.60;;;;;;;5.79;100.00;100205.25;4986292;28;20573;-86
2023/01/11 11:03:09;;;;;;;4.10;2.40;;;;;;;5.74;100.00;100206.19;4915714;29;20055;-86
2023/01/11 11:05:36;;;;;;;5.17;3.90;;;;;;;5.81;100.00;100195.63;4991235;28;20395;-85
2023/01/11 11:08:45;;;;;;;8.73;4.50;;;;;;;5.90;100.00;100199.94;4976976;28;20100;-84
2023/01/11 11:11:21;;;;;;;3.47;2.90;;;;;;;5.90;100.00;100194.69;5000141;28;20045;-85
2023/01/11 11:14:36;;;;;;;14.30;9.13;;;;;;;5.93;100.00;100187.69;4973436;28;20042;-86
2023/01/11 11:17:21;;;;;;;5.15;3.33;;;;;;;5.89;100.00;100183.34;4967858;28;20038;-85
2023/01/11 11:19:48;;;;;;;4.73;2.97;;;;;;;5.88;100.00;100170.22;4991589;28;20046;-86
2023/01/11 11:22:15;;;;;;;5.40;4.70;;;;;;;5.93;100.00;100171.06;4950755;28;20133;-85
2023/01/11 11:24:48;;;;;;;4.07;3.27;;;;;;;6.00;100.00;100170.16;4977760;28;20045;-85
2023/01/11 11:27:20;;;;;;;3.55;2.72;;;;;;;6.04;100.00;100169.22;4973875;28;20038;-86
2023/01/11 11:29:54;;;;;;;6.37;3.33;;;;;;;6.07;100.00;100173.59;4980704;28;20103;-85
2023/01/11 11:32:27;;;;;;;4.67;3.47;;;;;;;5.97;100.00;100166.66;4972543;28;20101;-87
2023/01/11 11:34:54;;;;;;;4.60;2.80;;;;;;;6.00;100.00;100157.03;4978333;28;20042;-86
2023/01/11 11:37:32;;;;;;;4.43;2.67;;;;;;;6.04;100.00;100163.97;4965169;28;20084;-85
2023/01/11 11:39:59;;;;;;;5.83;3.00;;;;;;;6.03;100.00;100157.00;5003731;28;20038;-85
2023/01/11 11:42:26;;;;;;;5.70;2.97;;;;;;;6.05;100.00;100160.47;5013875;28;20041;-85
2023/01/11 11:45:07;;;;;;;5.20;3.23;;;;;;;6.20;100.00;100149.81;4992957;28;20044;-86
2023/01/11 11:47:35;;;;;;;3.53;2.63;;;;;;;6.15;100.00;100153.38;5006525;28;20076;-86
2023/01/11 11:50:17;;;;;;;5.43;3.07;;;;;;;6.23;100.00;100146.31;4997827;28;20042;-85
2023/01/11 11:53:03;;;;;;;3.80;2.90;;;;;;;6.18;100.00;100151.59;4997236;28;20442;-86
2023/01/11 11:55:32;;;;;;;5.60;3.10;;;;;;;6.16;100.00;100142.88;4982088;28;20049;-87
2023/01/11 11:58:04;;;;;;;4.53;3.00;;;;;;;6.18;100.00;100145.47;4977051;28;20041;-88
2023/01/11 12:00:40;;;;;;;4.10;2.90;;;;;;;6.23;100.00;100138.44;4984150;28;20034;-88
2023/01/11 12:03:16;;;;;;;3.03;2.60;;;;;;;6.23;100.00;100142.81;4995989;28;20038;-86
2023/01/11 12:05:51;;;;;;;3.57;2.70;;;;;;;6.14;100.00;100138.53;4988811;28;20042;-86
2023/01/11 12:08:18;;;;;;;4.90;3.23;;;;;;;6.30;100.00;100131.34;4996410;28;20034;-83
2023/01/11 12:10:52;;;;;;;6.17;4.10;;;;;;;6.23;100.00;100127.09;5008641;28;20069;-83
2023/01/11 12:13:31;;;;;;;4.22;2.85;;;;;;;6.21;100.00;100134.94;4963618;28;20045;-83
2023/01/11 12:16:25;;;;;;;5.03;3.57;;;;;;;6.37;100.00;100122.53;4977509;28;20141;-84
2023/01/11 12:18:55;;;;;;;5.77;2.80;;;;;;;6.34;100.00;100127.81;4990791;28;20080;-83
2023/01/11 12:21:24;;;;;;;4.30;3.40;;;;;;;6.29;100.00;100122.59;4994107;28;20042;-83